罗盘
风向 的 风向 的 风向 到 风向 270° Puivert Airfield 14/32
风: 9 kt, 3 beaufort

6 kt

7 kt
改变
0 1.000 2.000 3.000 4.000 5.000
BKN 1.500 ft
BKN 2.500 ft
METAR LFMK 250830Z AUTO 27009KT 230V300 9999 BKN015 BKN025 14/12 Q1016 NOSIG

METAR Puivert Airfield - LFNW

Puivert Airfield是屈伊朗,法国中的小机场。 该机场有一条跑道: 14/32. 该领域的国际民航组织标志是LFNW.

这份报告是针对2022年9月25日 10:30, 当地时间在Carcassonne Airport进行的。

机场观察

风向为270°,速度为9 kt。 风向在230°和300°之间变化。

可见度为10 km 或者更多。

有碎云在1.500 ft的高度 和 碎云在2.500 ft的高度。 破损或更高的上限为1.500 ft。

温度和风寒是14 °C。 露点为12 °C,相对湿度为88%。 海平面上的气压为1016 hPa (QNH)。

白天

今天,太阳从07:42升起,在19:44降落。 这适用于Puivert Airfield,世界夏令时可能有所不同。 当地时间与世界标准时间之间的时差为+2 小时。 夏令时目前正在进行中。

公司介绍

在这个机场,你可以找到飞行俱乐部。 本场上唯一已知的公司是Les Planeurs de Puivert en Quercorb。

体会

到Vliegles.nl去找飞行课程,跳伞和其他飞行体验。 浏览页面,了解Puivert Airfield附近所有可用的活动。 你也可以使用搜索功能来寻找你所在地附近的特定飞行课程、跳伞或其他飞行体验。

跑道

Id 标题 侧风 逆风 侧风 %
14/32 139°-319° 7 kt 6 kt 75 %

逆风成分最大的方向会被突出显示,并用于横风计算。 这并不一定意味着这个方向在使用。

乌云

1.500 ft BKN 碎云
2.500 ft BKN 碎云

温度 & 天气

温度 14 °C
露点 12 °C
相对湿度 88%
Kp-index 1  

白天

日出
07:41
中午
13:42
日落
19:43 (8h 46m)

小工具

你想在你的网站上有一个关于Puivert Airfield的当前航空天气(METAR)的小部件吗?

</> 显示HTML代码

我们和第三方通过cookies跟踪您在我们网站上的上网行为。如果您继续,我们认为您同意我们的cookie政策。 了解更多